Preview of NWS' New Version of Forecast
This preview is not operational and should not be used for support decisions.

Terminal Aerodrome Forecast (TAF)

Issued by National Weather Service (NWS)

                            
000
FTUS42 KKEY 220527
TAFEYW
TAF
KEYW 220527Z 2206/2306 07013G20KT P6SM SCT045
     FM221300 09015G22KT P6SM FEW030 BKN040
     FM221800 10018G25KT P6SM SCT025 SCT050=